Time;durP1;ratioP1;P1;durP2;ratioP2;P2;SDS_P1;SDS_P2;PMS_P1;PMS_P2;Temp;Humidity;BMP_temperature;BMP_pressure;BME280_temperature;BME280_humidity;BME280_pressure;Samples;Min_cycle;Max_cycle;Signal;HPM_P1;HPM_P2
2022/07/28 00:00:18;;;;;;;0.30;0.30;;;19.40;1.00;;;;;;5067693;28;20202;-74
2022/07/28 00:02:44;;;;;;;0.30;0.30;;;19.40;1.00;;;;;;5068141;28;20194;-75
2022/07/28 00:05:10;;;;;;;0.40;0.40;;;19.40;1.00;;;;;;5067929;28;20181;-75
2022/07/28 00:07:36;;;;;;;0.33;0.33;;;19.40;1.00;;;;;;5068085;28;20550;-75
2022/07/28 00:10:01;;;;;;;0.30;0.30;;;19.20;1.00;;;;;;5067688;28;20167;-75
2022/07/28 00:12:27;;;;;;;0.30;0.30;;;19.10;1.00;;;;;;5067913;28;20675;-75
2022/07/28 00:14:52;;;;;;;0.30;0.30;;;18.90;1.00;;;;;;5067969;28;20772;-75
2022/07/28 00:17:18;;;;;;;0.40;0.40;;;18.70;1.00;;;;;;5067815;28;20210;-75
2022/07/28 00:19:43;;;;;;;0.40;0.40;;;18.60;1.00;;;;;;5067253;28;20206;-75
2022/07/28 00:22:09;;;;;;;0.30;0.30;;;18.50;1.00;;;;;;5067707;28;20282;-75
2022/07/28 00:24:36;;;;;;;0.30;0.30;;;18.60;1.00;;;;;;5067974;28;20209;-75
2022/07/28 00:27:03;;;;;;;0.30;0.30;;;18.60;1.00;;;;;;5067734;28;20189;-75
2022/07/28 00:29:28;;;;;;;0.30;0.30;;;18.60;1.00;;;;;;5066959;28;20175;-75
2022/07/28 00:31:54;;;;;;;0.30;0.30;;;18.50;1.00;;;;;;5067366;28;20185;-75
2022/07/28 00:34:20;;;;;;;0.30;0.30;;;18.40;1.00;;;;;;5067737;28;20182;-75
2022/07/28 00:36:45;;;;;;;0.30;0.30;;;18.30;1.00;;;;;;5067475;28;20214;-75
2022/07/28 00:39:11;;;;;;;0.30;0.30;;;18.20;1.00;;;;;;5067298;28;20179;-75
2022/07/28 00:41:37;;;;;;;0.40;0.40;;;18.30;1.00;;;;;;5067280;28;20170;-75
2022/07/28 00:44:05;;;;;;;0.40;0.40;;;18.20;1.00;;;;;;5067253;28;20194;-75
2022/07/28 00:46:30;;;;;;;0.30;0.30;;;18.20;1.00;;;;;;5067111;28;20672;-75
2022/07/28 00:48:56;;;;;;;0.40;0.40;;;18.10;1.00;;;;;;5058612;28;20211;-75
2022/07/28 00:51:24;;;;;;;0.37;0.37;;;18.00;1.00;;;;;;5054120;28;20183;-75
2022/07/28 00:53:50;;;;;;;0.40;0.40;;;18.10;1.00;;;;;;5053900;28;20203;-75
2022/07/28 00:56:15;;;;;;;0.40;0.40;;;18.10;1.00;;;;;;5053838;28;20183;-75
2022/07/28 00:58:41;;;;;;;0.40;0.40;;;18.20;1.00;;;;;;5053760;28;20274;-74
2022/07/28 01:01:09;;;;;;;0.40;0.40;;;18.20;1.00;;;;;;5053081;28;20179;-75
2022/07/28 01:03:38;;;;;;;0.30;0.30;;;18.20;1.00;;;;;;5053652;28;20206;-75
2022/07/28 01:06:13;;;;;;;0.50;0.50;;;18.20;1.00;;;;;;5053726;28;20175;-75
2022/07/28 01:09:04;;;;;;;0.40;0.40;;;18.20;1.00;;;;;;5053602;28;20640;-75
2022/07/28 01:11:40;;;;;;;0.40;0.40;;;18.20;1.00;;;;;;5053279;28;20167;-75
2022/07/28 01:14:43;;;;;;;0.30;0.30;;;18.20;1.00;;;;;;5053657;28;20195;-75
2022/07/28 01:17:20;;;;;;;0.40;0.40;;;18.00;1.00;;;;;;5053506;28;20237;-75
2022/07/28 01:20:13;;;;;;;0.30;0.30;;;17.80;1.00;;;;;;5052837;28;20276;-75
2022/07/28 01:22:50;;;;;;;0.50;0.50;;;17.70;1.00;;;;;;5046029;28;20624;-75
2022/07/28 01:25:49;;;;;;;0.40;0.40;;;17.60;1.00;;;;;;5048111;28;20569;-75
2022/07/28 01:28:31;;;;;;;0.40;0.40;;;17.40;1.00;;;;;;5047589;28;20219;-75
2022/07/28 01:31:01;;;;;;;0.40;0.40;;;17.30;1.00;;;;;;5044965;28;20179;-75
2022/07/28 01:33:41;;;;;;;0.37;0.37;;;17.30;1.00;;;;;;5053155;28;20381;-75
2022/07/28 01:36:16;;;;;;;0.30;0.30;;;17.20;1.00;;;;;;5052837;28;20244;-75
2022/07/28 01:38:42;;;;;;;0.40;0.40;;;17.20;1.00;;;;;;5053026;28;20178;-75
2022/07/28 01:41:22;;;;;;;0.40;0.40;;;17.20;1.00;;;;;;5052868;28;20572;-75
2022/07/28 01:43:58;;;;;;;0.40;0.40;;;17.20;1.00;;;;;;5053024;28;20202;-75
2022/07/28 01:46:25;;;;;;;0.40;0.40;;;17.10;1.00;;;;;;5053001;28;20185;-75
2022/07/28 01:48:52;;;;;;;0.40;0.40;;;17.10;1.00;;;;;;5052631;28;20187;-75
2022/07/28 01:51:19;;;;;;;0.50;0.50;;;17.00;1.00;;;;;;5052340;28;20175;-75
2022/07/28 01:53:48;;;;;;;0.30;0.30;;;17.00;1.00;;;;;;5052729;28;20227;-75
2022/07/28 01:56:16;;;;;;;0.50;0.50;;;16.90;60.60;;;;;;5052811;28;20187;-75
2022/07/28 01:58:44;;;;;;;0.30;0.30;;;16.70;99.90;;;;;;5052910;28;20231;-75
2022/07/28 02:01:12;;;;;;;0.40;0.40;;;16.70;99.90;;;;;;5051204;28;20171;-75
2022/07/28 02:03:40;;;;;;;0.30;0.30;;;16.70;99.90;;;;;;5052263;28;20672;-74
2022/07/28 02:06:07;;;;;;;0.30;0.30;;;16.60;99.90;;;;;;5052654;28;20624;-75
2022/07/28 02:08:36;;;;;;;0.40;0.40;;;16.60;99.90;;;;;;5052887;28;20175;-75
2022/07/28 02:13:48;;;;;;;0.30;0.30;;;16.30;1.00;;;;;;5052725;28;20556;-74
2022/07/28 02:16:16;;;;;;;0.47;0.47;;;16.30;1.00;;;;;;5052290;28;20175;-74
2022/07/28 02:18:44;;;;;;;0.30;0.30;;;16.20;1.00;;;;;;5052387;28;20194;-74
2022/07/28 02:21:10;;;;;;;0.50;0.50;;;16.10;1.00;;;;;;5052077;28;20267;-74
2022/07/28 02:23:37;;;;;;;0.40;0.40;;;16.10;1.00;;;;;;5052229;28;20203;-74
2022/07/28 02:26:07;;;;;;;0.40;0.40;;;16.10;1.00;;;;;;5052336;28;20548;-75
2022/07/28 02:28:34;;;;;;;0.40;0.40;;;16.10;1.00;;;;;;5052107;28;20248;-74
2022/07/28 02:31:15;;;;;;;0.30;0.30;;;16.10;1.00;;;;;;5051664;28;20636;-74
2022/07/28 02:33:42;;;;;;;0.30;0.30;;;16.10;64.30;;;;;;5052076;28;20202;-74
2022/07/28 02:36:29;;;;;;;0.30;0.30;;;16.10;95.90;;;;;;5051735;28;20655;-74
2022/07/28 02:39:04;;;;;;;0.40;0.40;;;16.10;1.00;;;;;;5052483;28;20687;-74
2022/07/28 02:41:36;;;;;;;0.40;0.40;;;16.10;46.70;;;;;;5052910;28;20173;-74
2022/07/28 02:44:10;;;;;;;0.40;0.40;;;16.00;99.90;;;;;;5051937;28;20214;-75
2022/07/28 02:46:41;;;;;;;0.40;0.40;;;16.00;99.90;;;;;;5051993;28;20175;-74
2022/07/28 02:49:15;;;;;;;0.40;0.40;;;16.10;99.90;;;;;;5051432;28;20186;-74
2022/07/28 02:51:42;;;;;;;0.40;0.40;;;16.00;99.90;;;;;;5051449;28;20254;-74
2022/07/28 02:54:10;;;;;;;0.40;0.40;;;15.90;99.90;;;;;;5051871;28;20172;-74
2022/07/28 02:56:37;;;;;;;0.30;0.30;;;16.10;99.90;;;;;;5051572;28;20217;-74
2022/07/28 02:59:03;;;;;;;0.40;0.40;;;16.10;29.50;;;;;;5050945;28;20680;-74
2022/07/28 03:01:30;;;;;;;0.30;0.30;;;16.00;99.90;;;;;;5051435;28;20275;-74
2022/07/28 03:03:56;;;;;;;0.30;0.30;;;16.10;99.90;;;;;;5051446;28;20187;-74
2022/07/28 03:06:22;;;;;;;0.30;0.30;;;16.00;99.90;;;;;;5051301;28;20189;-74
2022/07/28 03:08:49;;;;;;;0.30;0.30;;;16.00;99.90;;;;;;5051421;28;20181;-74
2022/07/28 03:11:14;;;;;;;0.40;0.40;;;16.00;99.90;;;;;;5050917;28;20533;-74
2022/07/28 03:13:40;;;;;;;0.50;0.50;;;16.00;99.90;;;;;;5051054;28;20199;-74
2022/07/28 03:16:06;;;;;;;0.33;0.33;;;16.10;99.90;;;;;;5051439;28;20201;-74
2022/07/28 03:18:32;;;;;;;0.30;0.30;;;16.10;36.80;;;;;;5051118;28;20260;-74
2022/07/28 03:20:58;;;;;;;0.30;0.30;;;16.10;1.00;;;;;;5049366;28;20640;-74
2022/07/28 03:23:37;;;;;;;0.30;0.30;;;16.20;1.00;;;;;;5051527;28;20206;-74
2022/07/28 03:26:11;;;;;;;0.30;0.30;;;16.20;1.00;;;;;;5051343;28;20236;-74
2022/07/28 03:28:38;;;;;;;0.30;0.30;;;16.10;1.00;;;;;;5051243;28;20171;-74
2022/07/28 03:31:08;;;;;;;0.30;0.30;;;16.10;1.00;;;;;;5050720;28;20182;-74
2022/07/28 03:33:34;;;;;;;0.33;0.33;;;16.20;1.00;;;;;;5051171;28;20282;-74
2022/07/28 03:36:05;;;;;;;0.50;0.50;;;16.20;1.00;;;;;;5051272;28;20599;-74
2022/07/28 03:38:42;;;;;;;0.40;0.40;;;16.20;1.00;;;;;;5051178;28;20226;-74
2022/07/28 03:41:09;;;;;;;0.40;0.40;;;16.20;1.00;;;;;;5050560;28;20220;-74
2022/07/28 03:43:36;;;;;;;0.50;0.50;;;16.20;1.00;;;;;;5050824;28;20199;-74
2022/07/28 03:46:02;;;;;;;0.40;0.40;;;16.20;1.00;;;;;;5051120;28;20192;-74
2022/07/28 03:48:31;;;;;;;0.40;0.40;;;16.20;1.00;;;;;;5051127;28;20171;-74
2022/07/28 03:50:57;;;;;;;0.37;0.37;;;16.20;1.00;;;;;;5050679;28;20202;-75
2022/07/28 03:53:28;;;;;;;0.30;0.30;;;16.20;1.00;;;;;;5051071;28;20199;-74
2022/07/28 03:55:54;;;;;;;0.30;0.30;;;16.10;1.00;;;;;;5050971;28;20186;-74
2022/07/28 03:58:24;;;;;;;0.40;0.40;;;16.10;1.00;;;;;;5050789;28;20211;-75
2022/07/28 04:00:50;;;;;;;0.30;0.30;;;16.10;1.00;;;;;;5050762;28;20202;-74
2022/07/28 04:03:17;;;;;;;0.33;0.33;;;16.00;1.00;;;;;;5050967;28;20568;-74
2022/07/28 04:05:43;;;;;;;0.40;0.40;;;16.00;1.00;;;;;;5051061;28;20651;-74
2022/07/28 04:08:09;;;;;;;0.40;0.40;;;15.90;1.00;;;;;;5050793;28;20191;-74
2022/07/28 04:10:34;;;;;;;0.30;0.30;;;15.90;25.60;;;;;;5050361;28;20258;-74
2022/07/28 04:13:00;;;;;;;0.30;0.30;;;15.90;99.90;;;;;;5050741;28;20199;-74
2022/07/28 04:15:27;;;;;;;0.33;0.33;;;16.00;1.00;;;;;;5053865;28;20176;-74
2022/07/28 04:17:54;;;;;;;0.37;0.37;;;16.00;67.20;;;;;;5051933;28;20213;-75
2022/07/28 04:20:21;;;;;;;0.40;0.40;;;15.90;97.70;;;;;;5050680;28;20274;-74
2022/07/28 04:22:47;;;;;;;0.30;0.30;;;15.90;90.30;;;;;;5055558;28;20268;-73
2022/07/28 04:25:15;;;;;;;0.40;0.40;;;16.00;99.90;;;;;;5071655;28;20171;-73
2022/07/28 04:27:42;;;;;;;0.37;0.37;;;16.00;99.90;;;;;;5071688;28;20568;-73
2022/07/28 04:30:15;;;;;;;0.37;0.37;;;16.00;99.90;;;;;;5060262;28;20551;-73
2022/07/28 04:32:42;;;;;;;0.30;0.30;;;16.00;99.90;;;;;;5054652;28;20203;-74
2022/07/28 04:35:09;;;;;;;0.30;0.30;;;16.00;99.90;;;;;;5054456;28;20179;-74
2022/07/28 04:37:35;;;;;;;0.30;0.30;;;16.00;99.90;;;;;;5053918;28;20726;-74
2022/07/28 04:40:01;;;;;;;0.40;0.40;;;16.10;99.90;;;;;;5054193;28;20171;-74
2022/07/28 04:42:27;;;;;;;0.30;0.30;;;16.30;1.00;;;;;;5054322;28;20270;-74
2022/07/28 04:44:52;;;;;;;0.30;0.30;;;16.40;1.00;;;;;;5054127;28;20262;-74
2022/07/28 04:47:18;;;;;;;0.40;0.40;;;16.60;1.00;;;;;;5053987;28;20554;-74
2022/07/28 04:49:43;;;;;;;0.30;0.30;;;16.60;1.00;;;;;;5053613;28;20664;-74
2022/07/28 04:52:09;;;;;;;0.30;0.30;;;16.50;1.00;;;;;;5054006;28;20641;-74
2022/07/28 04:54:35;;;;;;;0.37;0.37;;;16.90;1.00;;;;;;5053809;28;20236;-74
2022/07/28 04:57:01;;;;;;;0.40;0.40;;;17.70;99.90;;;;;;5053758;28;20223;-74
2022/07/28 04:59:27;;;;;;;0.30;0.30;;;18.10;99.90;;;;;;5053430;28;20266;-74
2022/07/28 05:01:53;;;;;;;0.40;0.40;;;18.60;1.00;;;;;;5053825;28;20262;-73
2022/07/28 05:04:18;;;;;;;0.30;0.30;;;18.80;1.00;;;;;;5053830;28;20604;-72
2022/07/28 05:06:44;;;;;;;0.30;0.30;;;19.20;1.00;;;;;;5053736;28;20175;-72
2022/07/28 05:09:09;;;;;;;0.30;0.30;;;19.40;1.00;;;;;;5053054;28;20175;-72
2022/07/28 05:11:35;;;;;;;0.20;0.20;;;19.40;1.00;;;;;;5052074;28;20179;-72
2022/07/28 05:14:00;;;;;;;0.40;0.40;;;19.70;1.00;;;;;;5053768;28;20229;-73
2022/07/28 05:16:26;;;;;;;0.37;0.37;;;19.90;1.00;;;;;;5053509;28;20668;-72
2022/07/28 05:18:52;;;;;;;0.30;0.30;;;19.30;1.00;;;;;;5053147;28;20206;-73
2022/07/28 05:21:17;;;;;;;0.30;0.30;;;19.10;1.00;;;;;;5053397;28;20182;-73
2022/07/28 05:23:43;;;;;;;0.40;0.40;;;19.00;1.00;;;;;;5052012;28;20214;-72
2022/07/28 05:26:08;;;;;;;0.40;0.40;;;18.70;1.00;;;;;;5053576;28;20605;-73
2022/07/28 05:28:34;;;;;;;0.30;0.30;;;18.80;1.00;;;;;;5053190;28;20210;-72
2022/07/28 05:30:59;;;;;;;0.40;0.40;;;18.60;1.00;;;;;;5052852;28;20179;-72
2022/07/28 05:33:25;;;;;;;0.30;0.30;;;18.70;1.00;;;;;;5053215;28;20215;-72
2022/07/28 05:35:53;;;;;;;0.30;0.30;;;18.80;1.00;;;;;;5053067;28;20649;-72
2022/07/28 05:38:18;;;;;;;0.40;0.40;;;19.10;1.00;;;;;;5051425;28;20745;-73
2022/07/28 05:40:46;;;;;;;0.40;0.40;;;19.20;1.00;;;;;;5052675;28;20171;-72
2022/07/28 05:43:11;;;;;;;0.30;0.30;;;19.50;1.00;;;;;;5053043;28;20203;-73
2022/07/28 05:45:37;;;;;;;0.40;0.40;;;19.40;1.00;;;;;;5053800;28;20270;-72
2022/07/28 05:48:02;;;;;;;0.30;0.30;;;19.60;1.00;;;;;;5053942;28;20272;-73
2022/07/28 05:50:28;;;;;;;0.33;0.33;;;19.50;1.00;;;;;;5047247;28;20248;-73
2022/07/28 05:52:53;;;;;;;0.30;0.30;;;19.40;1.00;;;;;;5052494;28;20195;-73
2022/07/28 05:55:19;;;;;;;0.30;0.30;;;19.50;1.00;;;;;;5050707;28;20583;-73
2022/07/28 05:57:45;;;;;;;0.30;0.30;;;19.30;1.00;;;;;;5052892;28;20237;-73
2022/07/28 06:00:14;;;;;;;0.30;0.30;;;19.20;1.00;;;;;;5052262;28;20377;-73
2022/07/28 06:02:41;;;;;;;0.40;0.40;;;18.80;1.00;;;;;;5052508;28;20240;-73
2022/07/28 06:05:07;;;;;;;0.30;0.30;;;18.70;1.00;;;;;;5052538;28;20175;-73
2022/07/28 06:07:33;;;;;;;0.30;0.30;;;18.70;1.00;;;;;;5053024;28;20190;-73
2022/07/28 06:09:58;;;;;;;0.40;0.40;;;18.90;1.00;;;;;;5053298;28;20244;-74
2022/07/28 06:12:24;;;;;;;0.37;0.37;;;19.20;1.00;;;;;;5054567;28;20559;-73
2022/07/28 06:14:49;;;;;;;0.30;0.30;;;19.50;1.00;;;;;;5054909;28;20171;-73
2022/07/28 06:17:15;;;;;;;0.40;0.40;;;19.70;1.00;;;;;;5054137;28;20238;-73
2022/07/28 06:19:42;;;;;;;0.30;0.30;;;19.90;1.00;;;;;;5053470;28;20798;-73
2022/07/28 06:22:08;;;;;;;0.40;0.40;;;19.80;1.00;;;;;;5052360;28;20213;-73
2022/07/28 06:24:33;;;;;;;0.30;0.30;;;19.90;1.00;;;;;;5052407;28;20179;-73
2022/07/28 06:27:01;;;;;;;0.30;0.30;;;19.90;1.00;;;;;;5052569;28;20262;-72
2022/07/28 06:29:28;;;;;;;0.30;0.30;;;20.10;1.00;;;;;;5051603;28;20179;-74
2022/07/28 06:31:53;;;;;;;0.40;0.40;;;20.20;1.00;;;;;;5051962;28;20186;-72
2022/07/28 06:34:19;;;;;;;0.30;0.30;;;20.20;1.00;;;;;;5052162;28;20179;-73
2022/07/28 06:36:44;;;;;;;0.30;0.30;;;20.30;1.00;;;;;;5051745;28;20309;-72
2022/07/28 06:39:10;;;;;;;0.30;0.30;;;20.50;1.00;;;;;;5051764;28;20269;-73
2022/07/28 06:41:40;;;;;;;0.30;0.30;;;20.40;1.00;;;;;;5053736;28;20187;-73
2022/07/28 06:44:07;;;;;;;0.40;0.40;;;20.50;1.00;;;;;;5051808;28;20698;-73
2022/07/28 06:46:32;;;;;;;0.40;0.40;;;20.40;1.00;;;;;;5051441;28;20186;-73
2022/07/28 06:48:58;;;;;;;0.37;0.37;;;20.50;1.00;;;;;;5051406;28;20179;-72
2022/07/28 06:51:23;;;;;;;0.30;0.30;;;20.80;1.00;;;;;;5051546;28;20186;-73
2022/07/28 06:53:49;;;;;;;0.30;0.30;;;20.50;1.00;;;;;;5051565;28;20195;-74
2022/07/28 06:56:15;;;;;;;0.40;0.40;;;20.60;1.00;;;;;;5051769;28;20185;-76
2022/07/28 06:58:41;;;;;;;0.30;0.30;;;20.60;1.00;;;;;;5052058;28;20301;-74
2022/07/28 07:01:07;;;;;;;0.30;0.30;;;20.60;1.00;;;;;;5051190;28;20626;-72
2022/07/28 07:03:33;;;;;;;0.30;0.30;;;20.80;1.00;;;;;;5051566;28;20218;-73
2022/07/28 07:05:58;;;;;;;0.30;0.30;;;20.90;1.00;;;;;;5052111;28;20176;-72
2022/07/28 07:08:24;;;;;;;0.30;0.30;;;21.10;1.00;;;;;;5051265;28;20211;-73
2022/07/28 07:10:49;;;;;;;0.33;0.33;;;21.00;1.00;;;;;;5051084;28;20182;-72
2022/07/28 07:13:15;;;;;;;0.30;0.30;;;21.10;1.00;;;;;;5051404;28;20199;-72
2022/07/28 07:15:40;;;;;;;0.30;0.30;;;21.20;1.00;;;;;;5051426;28;20171;-74
2022/07/28 07:18:06;;;;;;;0.30;0.30;;;21.00;1.00;;;;;;5051107;28;20672;-72
2022/07/28 07:20:32;;;;;;;0.30;0.30;;;21.30;1.00;;;;;;5050753;28;20216;-72
2022/07/28 07:22:57;;;;;;;0.30;0.30;;;21.60;1.00;;;;;;5050373;28;20583;-73
2022/07/28 07:25:23;;;;;;;0.40;0.40;;;21.80;1.00;;;;;;5032661;28;20545;-71
2022/07/28 07:27:48;;;;;;;0.33;0.33;;;21.90;1.00;;;;;;5050497;28;20183;-73
2022/07/28 07:30:14;;;;;;;0.30;0.30;;;22.00;1.00;;;;;;5050733;28;20171;-74
2022/07/28 07:32:40;;;;;;;0.37;0.37;;;22.10;1.00;;;;;;5049480;28;20201;-75
2022/07/28 07:35:06;;;;;;;0.40;0.40;;;22.20;1.00;;;;;;5064560;28;20194;-74
2022/07/28 07:37:32;;;;;;;0.30;0.30;;;22.10;1.00;;;;;;5068469;28;20214;-74
2022/07/28 07:39:59;;;;;;;0.30;0.30;;;22.20;1.00;;;;;;5068688;28;20182;-74
2022/07/28 07:42:25;;;;;;;0.30;0.30;;;22.50;1.00;;;;;;5068511;28;20191;-74
2022/07/28 07:44:50;;;;;;;0.30;0.30;;;22.70;1.00;;;;;;5068542;28;20239;-75
2022/07/28 07:47:17;;;;;;;0.37;0.37;;;22.70;1.00;;;;;;5062781;28;20171;-75
2022/07/28 07:49:42;;;;;;;0.30;0.30;;;23.10;1.00;;;;;;5050383;28;20213;-75
2022/07/28 07:52:08;;;;;;;0.30;0.30;;;23.50;1.00;;;;;;5049587;28;20822;-75
2022/07/28 07:54:34;;;;;;;0.30;0.30;;;24.00;1.00;;;;;;5050873;28;20183;-75
2022/07/28 07:57:00;;;;;;;0.40;0.40;;;24.30;1.00;;;;;;5047318;28;20214;-75
2022/07/28 07:59:26;;;;;;;0.40;0.40;;;24.70;1.00;;;;;;5052248;28;20179;-75
2022/07/28 08:01:53;;;;;;;0.47;0.47;;;24.80;1.00;;;;;;5054903;28;20175;-75
2022/07/28 08:04:23;;;;;;;0.50;0.50;;;25.10;1.00;;;;;;5054842;28;20572;-75
2022/07/28 08:06:49;;;;;;;0.50;0.50;;;25.50;1.00;;;;;;5054636;28;20237;-75
2022/07/28 08:09:15;;;;;;;0.50;0.50;;;25.80;1.00;;;;;;5054453;28;20187;-76
2022/07/28 08:11:41;;;;;;;0.53;0.53;;;25.80;1.00;;;;;;5057430;28;20187;-75
2022/07/28 08:14:06;;;;;;;0.40;0.40;;;25.80;1.00;;;;;;5058064;28;20301;-74
2022/07/28 08:16:32;;;;;;;0.40;0.40;;;25.90;1.00;;;;;;5058495;28;20178;-74
2022/07/28 08:18:57;;;;;;;0.43;0.43;;;25.30;1.00;;;;;;5057810;28;20179;-75
2022/07/28 08:21:27;;;;;;;0.40;0.40;;;25.80;1.00;;;;;;5057764;28;20648;-76
2022/07/28 08:23:57;;;;;;;0.40;0.40;;;26.20;1.00;;;;;;5054651;28;20282;-76
2022/07/28 08:26:23;;;;;;;0.50;0.50;;;26.30;1.00;;;;;;5054617;28;20171;-75
2022/07/28 08:28:48;;;;;;;0.50;0.50;;;26.40;1.00;;;;;;5054378;28;20524;-75
2022/07/28 08:31:16;;;;;;;0.43;0.43;;;26.60;1.00;;;;;;5053906;28;20240;-75
2022/07/28 08:33:42;;;;;;;0.60;0.60;;;27.50;1.00;;;;;;5054620;28;20256;-76
2022/07/28 08:36:08;;;;;;;0.50;0.50;;;27.80;1.00;;;;;;5052981;28;20685;-76
2022/07/28 08:38:33;;;;;;;0.50;0.50;;;27.60;1.00;;;;;;5054391;28;20215;-73
2022/07/28 08:41:02;;;;;;;0.60;0.60;;;27.80;1.00;;;;;;5054045;28;20706;-73
2022/07/28 08:43:33;;;;;;;0.50;0.50;;;27.80;1.00;;;;;;5054416;28;20199;-73
2022/07/28 08:46:01;;;;;;;0.60;0.60;;;28.00;1.00;;;;;;5054732;28;20199;-73
2022/07/28 08:48:30;;;;;;;0.70;0.70;;;28.30;1.00;;;;;;5055063;28;20257;-75
2022/07/28 08:51:03;;;;;;;0.60;0.60;;;28.10;1.00;;;;;;5057122;28;20174;-75
2022/07/28 08:53:34;;;;;;;0.50;0.50;;;28.90;1.00;;;;;;5069503;28;20195;-75
2022/07/28 08:56:03;;;;;;;0.57;0.57;;;29.20;1.00;;;;;;5069680;28;20191;-74
2022/07/28 08:58:31;;;;;;;0.40;0.40;;;28.30;1.00;;;;;;5057697;28;20207;-75
2022/07/28 09:00:57;;;;;;;0.50;0.50;;;28.60;1.00;;;;;;5053806;28;20203;-75
2022/07/28 09:03:23;;;;;;;0.50;0.50;;;28.90;1.00;;;;;;5054435;28;20241;-75
2022/07/28 09:05:49;;;;;;;0.40;0.40;;;29.10;1.00;;;;;;5054108;28;20179;-76
2022/07/28 09:08:17;;;;;;;0.50;0.50;;;29.40;1.00;;;;;;5054103;28;20182;-76
2022/07/28 09:10:43;;;;;;;0.57;0.57;;;28.70;1.00;;;;;;5053052;28;20206;-75
2022/07/28 09:13:08;;;;;;;0.60;0.60;;;28.80;1.00;;;;;;5054058;28;20242;-74
2022/07/28 09:15:36;;;;;;;0.70;0.70;;;29.40;1.00;;;;;;5054008;28;20183;-74
2022/07/28 09:18:02;;;;;;;0.70;0.70;;;29.00;1.00;;;;;;5053871;28;20340;-74
2022/07/28 09:20:28;;;;;;;0.50;0.50;;;29.00;1.00;;;;;;5053441;28;20179;-74
2022/07/28 09:23:03;;;;;;;0.60;0.60;;;28.60;1.00;;;;;;5054172;28;20195;-74
2022/07/28 09:25:29;;;;;;;0.57;0.57;;;28.00;1.00;;;;;;5053591;28;20181;-74
2022/07/28 09:27:57;;;;;;;0.70;0.70;;;27.70;1.00;;;;;;5053857;28;20258;-74
2022/07/28 09:30:29;;;;;;;0.50;0.50;;;27.40;1.00;;;;;;5052825;28;20663;-75
2022/07/28 09:33:15;;;;;;;0.40;0.40;;;27.60;1.00;;;;;;5053344;28;20830;-74
2022/07/28 09:35:47;;;;;;;0.60;0.60;;;27.60;1.00;;;;;;5053377;28;20183;-74
2022/07/28 09:38:13;;;;;;;0.50;0.50;;;27.70;1.00;;;;;;5053123;28;20912;-74
2022/07/28 09:40:39;;;;;;;0.50;0.50;;;28.70;1.00;;;;;;5052945;28;20172;-74
2022/07/28 09:43:05;;;;;;;0.60;0.60;;;29.50;1.00;;;;;;5052914;28;20214;-74
2022/07/28 09:45:31;;;;;;;0.60;0.60;;;30.20;1.00;;;;;;5053218;28;20180;-74
2022/07/28 09:48:10;;;;;;;0.50;0.50;;;29.80;1.00;;;;;;5053251;28;20186;-74
2022/07/28 09:50:36;;;;;;;0.50;0.50;;;29.40;1.00;;;;;;5052670;28;20269;-74
2022/07/28 09:53:23;;;;;;;0.57;0.57;;;29.40;1.00;;;;;;5052998;28;20719;-74
2022/07/28 09:56:00;;;;;;;0.40;0.40;;;29.30;1.00;;;;;;5053042;28;20214;-74
2022/07/28 09:58:26;;;;;;;0.50;0.50;;;29.90;1.00;;;;;;5053194;28;20207;-74
2022/07/28 10:01:02;;;;;;;0.40;0.40;;;29.90;1.00;;;;;;5052420;28;20210;-74
2022/07/28 10:03:28;;;;;;;0.40;0.40;;;29.70;1.00;;;;;;5053089;28;20198;-74
2022/07/28 10:05:55;;;;;;;0.50;0.50;;;29.20;1.00;;;;;;5053072;28;20191;-74
2022/07/28 10:08:39;;;;;;;0.40;0.40;;;29.00;1.00;;;;;;5052997;28;20179;-74
2022/07/28 10:11:05;;;;;;;0.40;0.40;;;28.80;1.00;;;;;;5052244;28;20531;-74
2022/07/28 10:13:30;;;;;;;0.40;0.40;;;29.80;1.00;;;;;;5052592;28;20202;-74
2022/07/28 10:16:09;;;;;;;0.40;0.40;;;29.60;1.00;;;;;;5052983;28;20225;-74
2022/07/28 10:18:35;;;;;;;0.40;0.40;;;29.10;1.00;;;;;;5052822;28;20211;-74
2022/07/28 10:21:04;;;;;;;0.40;0.40;;;29.30;1.00;;;;;;5051243;28;20262;-73
2022/07/28 10:23:30;;;;;;;0.60;0.60;;;29.30;1.00;;;;;;5052266;28;20991;-73
2022/07/28 10:25:57;;;;;;;0.40;0.40;;;29.70;1.00;;;;;;5052394;28;20167;-74
2022/07/28 10:28:23;;;;;;;0.50;0.50;;;30.00;1.00;;;;;;5052596;28;20237;-74
2022/07/28 10:30:54;;;;;;;0.50;0.50;;;30.50;1.00;;;;;;5052258;28;20183;-75
2022/07/28 10:33:21;;;;;;;0.60;0.60;;;30.50;1.00;;;;;;5052505;28;20207;-73
2022/07/28 10:35:48;;;;;;;0.60;0.60;;;30.30;1.00;;;;;;5051037;28;20175;-73
2022/07/28 10:38:15;;;;;;;0.60;0.60;;;30.80;1.00;;;;;;5051931;28;20615;-73
2022/07/28 10:40:44;;;;;;;0.60;0.60;;;30.30;1.00;;;;;;5051942;28;20175;-73
2022/07/28 10:43:10;;;;;;;0.53;0.53;;;30.20;1.00;;;;;;5052221;28;20191;-73
2022/07/28 10:45:37;;;;;;;0.53;0.53;;;30.50;1.00;;;;;;5051976;28;20656;-73
2022/07/28 10:48:04;;;;;;;0.50;0.50;;;30.50;1.00;;;;;;5052193;28;20175;-72
2022/07/28 10:50:31;;;;;;;0.50;0.50;;;30.80;1.00;;;;;;5051497;28;20221;-74
2022/07/28 10:52:58;;;;;;;0.65;0.65;;;31.00;1.00;;;;;;5051822;28;20333;-74
2022/07/28 10:55:45;;;;;;;0.60;0.60;;;30.70;1.00;;;;;;5052138;28;20179;-73
2022/07/28 10:58:29;;;;;;;0.60;0.60;;;30.80;1.00;;;;;;5051998;28;20215;-73
2022/07/28 11:00:55;;;;;;;0.50;0.50;;;31.20;1.00;;;;;;5051449;28;20182;-73
2022/07/28 11:03:44;;;;;;;0.65;0.65;;;31.70;1.00;;;;;;5051634;28;20257;-73
2022/07/28 11:06:27;;;;;;;0.52;0.52;;;31.40;1.00;;;;;;5051957;28;20178;-74
2022/07/28 11:08:54;;;;;;;0.60;0.60;;;30.40;1.00;;;;;;5051296;28;20179;-74
2022/07/28 11:11:45;;;;;;;0.52;0.52;;;29.90;1.00;;;;;;5051646;28;20269;-73
2022/07/28 11:14:34;;;;;;;0.60;0.60;;;29.30;1.00;;;;;;5051816;28;20172;-74
2022/07/28 11:17:00;;;;;;;0.57;0.57;;;30.00;1.00;;;;;;5051584;28;20372;-74
2022/07/28 11:19:27;;;;;;;0.50;0.50;;;29.80;1.00;;;;;;5051083;28;20207;-74
2022/07/28 11:22:16;;;;;;;0.50;0.50;;;30.10;1.00;;;;;;5051507;28;20265;-74
2022/07/28 11:25:04;;;;;;;0.50;0.50;;;29.10;1.00;;;;;;5051789;28;20198;-74
2022/07/28 11:27:42;;;;;;;0.60;0.60;;;29.30;1.00;;;;;;5048467;28;20194;-75
2022/07/28 11:30:09;;;;;;;0.50;0.50;;;29.30;1.00;;;;;;5050980;28;20236;-74
2022/07/28 11:32:50;;;;;;;0.60;0.60;;;30.10;1.00;;;;;;5051100;28;20694;-73
2022/07/28 11:35:39;;;;;;;0.60;0.60;;;30.00;1.00;;;;;;5051637;28;20175;-74
2022/07/28 11:38:06;;;;;;;0.50;0.50;;;29.50;1.00;;;;;;5048125;28;20245;-74
2022/07/28 11:40:46;;;;;;;0.50;0.50;;;29.80;1.00;;;;;;5050851;28;20175;-74
2022/07/28 11:43:24;;;;;;;0.50;0.50;;;29.30;1.00;;;;;;5051337;28;20218;-75
2022/07/28 11:46:09;;;;;;;0.70;0.70;;;29.70;1.00;;;;;;5051493;28;20252;-74
2022/07/28 11:48:35;;;;;;;0.60;0.60;;;30.80;1.00;;;;;;5051033;28;20269;-75
2022/07/28 11:51:04;;;;;;;0.53;0.53;;;30.00;1.00;;;;;;5050486;28;20258;-74
2022/07/28 11:53:51;;;;;;;0.53;0.53;;;29.80;1.00;;;;;;5051032;28;20214;-74
2022/07/28 11:56:25;;;;;;;0.50;0.50;;;29.70;1.00;;;;;;5051291;28;20170;-74
2022/07/28 11:59:01;;;;;;;0.50;0.50;;;30.20;1.00;;;;;;5050981;28;20553;-74
2022/07/28 12:01:27;;;;;;;0.52;0.52;;;30.60;1.00;;;;;;5051234;28;20179;-75
2022/07/28 12:03:55;;;;;;;0.47;0.47;;;31.10;1.00;;;;;;5051030;28;20205;-74
2022/07/28 12:06:23;;;;;;;0.60;0.60;;;30.90;1.00;;;;;;5051367;28;20182;-74
2022/07/28 12:08:55;;;;;;;0.60;0.60;;;31.50;1.00;;;;;;5051095;28;20544;-75
2022/07/28 12:11:23;;;;;;;0.60;0.60;;;31.40;1.00;;;;;;5051216;28;20171;-75
2022/07/28 12:14:02;;;;;;;0.70;0.70;;;30.80;1.00;;;;;;5050913;28;20199;-74
2022/07/28 12:16:28;;;;;;;0.50;0.50;;;31.00;1.00;;;;;;5051460;28;20185;-74
2022/07/28 12:18:54;;;;;;;0.50;0.50;;;30.10;1.00;;;;;;5050584;28;20575;-75
2022/07/28 12:21:35;;;;;;;0.60;0.60;;;29.80;1.00;;;;;;5051101;28;20635;-75
2022/07/28 12:24:01;;;;;;;0.50;0.50;;;29.70;1.00;;;;;;5050886;28;20729;-74
2022/07/28 12:26:34;;;;;;;0.60;0.60;;;30.40;1.00;;;;;;5050955;28;20171;-75
2022/07/28 12:29:00;;;;;;;0.50;0.50;;;30.60;1.00;;;;;;5050774;28;20190;-74
2022/07/28 12:31:31;;;;;;;0.50;0.50;;;31.10;1.00;;;;;;5051093;28;20233;-74
2022/07/28 12:34:04;;;;;;;0.60;0.60;;;30.90;1.00;;;;;;5050882;28;20202;-74
2022/07/28 12:36:30;;;;;;;0.43;0.43;;;30.70;1.00;;;;;;5050918;28;20198;-75
2022/07/28 12:38:56;;;;;;;0.50;0.50;;;30.80;1.00;;;;;;5050251;28;20210;-75
2022/07/28 12:41:29;;;;;;;0.60;0.60;;;31.10;1.00;;;;;;5051777;28;20269;-74
2022/07/28 12:43:54;;;;;;;0.55;0.55;;;32.00;1.00;;;;;;5050688;28;20257;-75
2022/07/28 12:46:27;;;;;;;0.60;0.60;;;31.80;1.00;;;;;;5054433;28;20171;-74
2022/07/28 12:48:54;;;;;;;0.52;0.52;;;31.20;1.00;;;;;;5054111;28;20183;-75
2022/07/28 12:51:40;;;;;;;0.50;0.50;;;31.60;1.00;;;;;;5054424;28;20206;-74
2022/07/28 12:54:10;;;;;;;0.50;0.50;;;31.20;1.00;;;;;;5054501;28;20202;-74
2022/07/28 12:56:54;;;;;;;0.60;0.60;;;31.40;1.00;;;;;;5054315;28;20180;-74
2022/07/28 12:59:19;;;;;;;0.57;0.57;;;31.50;1.00;;;;;;5053750;28;20221;-74
2022/07/28 13:01:48;;;;;;;0.60;0.60;;;31.40;1.00;;;;;;5054045;28;20171;-74
2022/07/28 13:04:15;;;;;;;0.60;0.60;;;31.40;1.00;;;;;;5054072;28;20182;-74
2022/07/28 13:06:41;;;;;;;0.60;0.60;;;31.40;1.00;;;;;;5054658;28;20179;-74